Big Bear Station Historical Data
Daily Summary for June 26, 2017 Units:  English    Metric   Both
« Previous Day
Next Day »
Daily Weekly Monthly Yearly Custom
  High: Low: Average:
Temperature: 85.3 °F 59.7 °F 72.3 °F
Dew Point: 38.2 °F 24.1 °F 32.4 °F
Humidity: 37 % 16 % 24 %
Wind Speed: 9.9 mph 0.0 mph 3.1 mph
Wind Gust: -999.0 mph - -
Wind:- - WSW
Pressure: 30.33 in 30.25 in -
Precipitation: 0.00 in    
Historical Graphs
 
 
Tabular Data for June 26, 2017
Time Temperature Dew Point Pressure Wind Wind Speed Wind Gust Humidity Rainfall Rate (Hourly)
00:03 67.1 °F 35.4 °F 30.32 in North 2.2 mph -999.0 mph 31 % 0 in
00:18 67.1 °F 33.8 °F 30.32 in NNE 1.1 mph -999.0 mph 29 % 0 in
00:33 66.9 °F 32.7 °F 30.31 in SSW 1.1 mph -999.0 mph 28 % 0 in
00:48 66.9 °F 33.6 °F 30.32 in Calm   -999.0 mph 29 % 0 in
01:04 66.4 °F 31.4 °F 30.32 in Calm   -999.0 mph 27 % 0 in
01:19 66.2 °F 30.3 °F 30.31 in Calm   -999.0 mph 26 % 0 in
01:34 66.0 °F 29.2 °F 30.31 in Calm   -999.0 mph 25 % 0 in
01:49 65.7 °F 28.9 °F 30.31 in Calm   -999.0 mph 25 % 0 in
02:04 65.1 °F 28.4 °F 30.31 in Calm   -999.0 mph 25 % 0 in
02:20 65.1 °F 27.4 °F 30.31 in SSE 1.7 mph -999.0 mph 24 % 0 in
02:36 65.7 °F 27.9 °F 30.31 in SSW 2.7 mph -999.0 mph 24 % 0 in
02:51 64.8 °F 27.1 °F 30.30 in Calm   -999.0 mph 24 % 0 in
03:06 64.2 °F 27.6 °F 30.30 in SSW 1.7 mph -999.0 mph 25 % 0 in
03:22 63.3 °F 27.8 °F 30.30 in Calm   -999.0 mph 26 % 0 in
03:37 63.5 °F 28.9 °F 30.30 in Calm   -999.0 mph 27 % 0 in
03:52 64.2 °F 29.5 °F 30.30 in NW 2.2 mph -999.0 mph 27 % 0 in
04:07 64.6 °F 30.7 °F 30.29 in Calm   -999.0 mph 28 % 0 in
04:23 66.0 °F 29.2 °F 30.29 in WSW 4.2 mph -999.0 mph 25 % 0 in
04:38 66.6 °F 29.7 °F 30.29 in NW 2.2 mph -999.0 mph 25 % 0 in
04:53 66.9 °F 29.9 °F 30.29 in NNW 2.7 mph -999.0 mph 25 % 0 in
05:08 66.7 °F 29.8 °F 30.30 in WNW 2.2 mph -999.0 mph 25 % 0 in
05:23 67.1 °F 30.1 °F 30.30 in SSW 1.7 mph -999.0 mph 25 % 0 in
05:39 66.4 °F 31.4 °F 30.30 in North 1.7 mph -999.0 mph 27 % 0 in
05:54 66.2 °F 31.2 °F 30.30 in Calm   -999.0 mph 27 % 0 in
06:09 66.4 °F 31.4 °F 30.30 in West 1.1 mph -999.0 mph 27 % 0 in
06:25 66.7 °F 31.7 °F 30.30 in NW 2.7 mph -999.0 mph 27 % 0 in
06:40 67.5 °F 31.4 °F 30.30 in NNW 2.7 mph -999.0 mph 26 % 0 in
06:55 67.6 °F 31.5 °F 30.30 in NNW 2.2 mph -999.0 mph 26 % 0 in
07:10 69.3 °F 30.9 °F 30.31 in NW 2.2 mph -999.0 mph 24 % 0 in
07:25 70.0 °F 31.5 °F 30.31 in Calm   -999.0 mph 24 % 0 in
07:41 70.2 °F 32.7 °F 30.31 in WNW 6.8 mph -999.0 mph 25 % 0 in
07:56 70.7 °F 32.1 °F 30.31 in SSW 1.1 mph -999.0 mph 24 % 0 in
08:11 71.2 °F 32.6 °F 30.32 in NE 3.7 mph -999.0 mph 24 % 0 in
08:27 71.8 °F 32.0 °F 30.32 in WSW 2.7 mph -999.0 mph 23 % 0 in
08:42 72.0 °F 32.2 °F 30.32 in WNW 4.2 mph -999.0 mph 23 % 0 in
08:57 72.5 °F 33.7 °F 30.32 in Calm   -999.0 mph 24 % 0 in
09:12 73.4 °F 32.2 °F 30.32 in NNW 3.7 mph -999.0 mph 22 % 0 in
09:27 73.8 °F 33.7 °F 30.32 in NW 9.4 mph -999.0 mph 23 % 0 in
09:43 74.8 °F 32.2 °F 30.32 in WNW 7.8 mph -999.0 mph 21 % 0 in
09:58 75.6 °F 32.9 °F 30.32 in SSE 5.8 mph -999.0 mph 21 % 0 in
10:14 76.3 °F 33.5 °F 30.32 in SW 4.7 mph -999.0 mph 21 % 0 in
10:29 76.6 °F 34.9 °F 30.32 in NW 6.3 mph -999.0 mph 22 % 0 in
10:44 77.0 °F 32.9 °F 30.32 in SSE 3.7 mph -999.0 mph 20 % 0 in
11:00 77.2 °F 34.2 °F 30.33 in North 5.8 mph -999.0 mph 21 % 0 in
11:15 77.4 °F 34.4 °F 30.32 in ENE 6.3 mph -999.0 mph 21 % 0 in
11:30 79.0 °F 35.7 °F 30.33 in WNW 6.3 mph -999.0 mph 21 % 0 in
11:45 79.0 °F 33.2 °F 30.33 in North 3.7 mph -999.0 mph 19 % 0 in
12:00 81.5 °F 32.5 °F 30.33 in ESE 4.2 mph -999.0 mph 17 % 0 in
12:16 83.1 °F 33.8 °F 30.33 in NW 3.2 mph -999.0 mph 17 % 0 in
12:31 82.6 °F 34.8 °F 30.33 in NNE 5.3 mph -999.0 mph 18 % 0 in
12:46 82.9 °F 33.6 °F 30.32 in WSW 2.2 mph -999.0 mph 17 % 0 in
13:01 83.7 °F 32.8 °F 30.32 in North 5.8 mph -999.0 mph 16 % 0 in
13:16 84.2 °F 33.2 °F 30.32 in East 4.2 mph -999.0 mph 16 % 0 in
13:32 84.7 °F 36.5 °F 30.32 in WNW 8.9 mph -999.0 mph 18 % 0 in
13:47 83.5 °F 34.1 °F 30.32 in NW 8.3 mph -999.0 mph 17 % 0 in
14:02 85.1 °F 38.2 °F 30.32 in NNE 2.7 mph -999.0 mph 19 % 0 in
14:17 85.3 °F 37.0 °F 30.32 in WNW 4.2 mph -999.0 mph 18 % 0 in
14:33 84.6 °F 35.0 °F 30.32 in South 4.7 mph -999.0 mph 17 % 0 in
14:48 84.2 °F 33.2 °F 30.31 in SW 2.7 mph -999.0 mph 16 % 0 in
15:03 83.8 °F 34.3 °F 30.32 in NNW 3.7 mph -999.0 mph 17 % 0 in
15:18 84.4 °F 34.8 °F 30.31 in ESE 3.2 mph -999.0 mph 17 % 0 in
15:34 83.1 °F 33.8 °F 30.31 in ESE 2.7 mph -999.0 mph 17 % 0 in
15:49 83.8 °F 34.3 °F 30.30 in ESE 4.7 mph -999.0 mph 17 % 0 in
16:06 81.3 °F 33.8 °F 30.30 in SSE 5.3 mph -999.0 mph 18 % 0 in
16:21 82.0 °F 34.3 °F 30.30 in SSE 4.7 mph -999.0 mph 18 % 0 in
16:37 81.9 °F 35.6 °F 30.30 in SSE 6.8 mph -999.0 mph 19 % 0 in
16:52 82.0 °F 34.3 °F 30.30 in SSW 4.7 mph -999.0 mph 18 % 0 in
17:07 82.2 °F 34.5 °F 30.29 in WNW 3.2 mph -999.0 mph 18 % 0 in
17:23 83.7 °F 35.7 °F 30.28 in SE 2.7 mph -999.0 mph 18 % 0 in
17:38 82.6 °F 34.8 °F 30.28 in SSW 4.2 mph -999.0 mph 18 % 0 in
17:54 83.1 °F 35.2 °F 30.27 in NNW 3.7 mph -999.0 mph 18 % 0 in
18:09 80.4 °F 35.7 °F 30.27 in WNW 7.3 mph -999.0 mph 20 % 0 in
18:24 80.6 °F 35.8 °F 30.27 in NNW 4.2 mph -999.0 mph 20 % 0 in
18:40 79.3 °F 34.8 °F 30.27 in WSW 1.7 mph -999.0 mph 20 % 0 in
18:55 77.9 °F 34.8 °F 30.27 in WNW 5.3 mph -999.0 mph 21 % 0 in
19:10 76.3 °F 33.5 °F 30.27 in NNW 2.7 mph -999.0 mph 21 % 0 in
19:25 72.1 °F 33.3 °F 30.27 in NW 9.9 mph -999.0 mph 24 % 0 in
19:41 70.0 °F 33.5 °F 30.27 in WNW 4.7 mph -999.0 mph 26 % 0 in
19:56 68.4 °F 34.9 °F 30.27 in West 3.2 mph -999.0 mph 29 % 0 in
20:11 66.9 °F 35.3 °F 30.27 in NW 4.7 mph -999.0 mph 31 % 0 in
20:27 65.8 °F 37.4 °F 30.27 in WNW 2.2 mph -999.0 mph 35 % 0 in
20:42 64.8 °F 37.2 °F 30.27 in NNW 4.2 mph -999.0 mph 36 % 0 in
20:58 64.0 °F 37.2 °F 30.27 in NNW 2.7 mph -999.0 mph 37 % 0 in
21:13 63.3 °F 36.6 °F 30.27 in WNW 3.2 mph -999.0 mph 37 % 0 in
21:28 62.8 °F 34.0 °F 30.27 in West 2.2 mph -999.0 mph 34 % 0 in
21:43 62.2 °F 31.2 °F 30.27 in Calm   -999.0 mph 31 % 0 in
21:58 61.3 °F 27.9 °F 30.27 in Calm   -999.0 mph 28 % 0 in
22:14 61.0 °F 29.3 °F 30.27 in Calm   -999.0 mph 30 % 0 in
22:29 60.6 °F 30.6 °F 30.27 in NNW 3.2 mph -999.0 mph 32 % 0 in
22:44 60.4 °F 26.2 °F 30.27 in West 4.2 mph -999.0 mph 27 % 0 in
23:00 60.3 °F 25.3 °F 30.27 in Calm   -999.0 mph 26 % 0 in
23:15 60.3 °F 25.3 °F 30.26 in Calm   -999.0 mph 26 % 0 in
23:30 60.1 °F 24.1 °F 30.26 in NW 2.2 mph -999.0 mph 25 % 0 in
23:45 59.7 °F 24.7 °F 30.25 in Calm   -999.0 mph 26 % 0 in
Big Bear CA Weather
Compliments of Weather Underground - 1.5 mb